Tropical Cyclones
[Index]
Main Index Home Page Stock Weather Photos Extreme Storms Discussion Storm News and Storm Chasing Reports Tropical Cyclones / Hurricanes / Typhoons Weather Data and Links Wild Fires / Bushfires Weather Observation Techniques Weather Picture Catalogue Tornado Pictures and Reports Stock Video Footage and DVDs for sale
Season 2011-2012 Tropical Cyclone 201112_02 Track Map
Season 2011-2012 Summaries: [BoM-AU] [JTWC-AU] [JTWC-SIO] [JTWC-SPAC] [JTWC-SH]
<<- Previous TC | BoM 2011-2012 Season | Next TC ->>

click for intensity scale information  Lat/long Grid: Show Hide

 Date Labels: Show Hide

Bureau of Meteorology Tropical Cyclone Data

Name: 201112_02
Number: 953 / 201112_02

18 Dec 2011 00:00 UTC to 26 Dec 2011 06:00 UTC

    date/time    lat    long    hPa   cat  kts
2011-12-18 00   12.0   157.0   1005         20          
2011-12-18 12   13.0   157.0   1005         20          
2011-12-19 00   13.2   154.8   1003         20          
2011-12-19 06   13.6   156.0   1003         20          
2011-12-19 12   14.0   155.1   1003         20          
2011-12-19 18   13.9   156.4   1003         20          
2011-12-20 00   13.9   155.5   1003         20          
2011-12-20 06   13.9   155.5   1002         20          
2011-12-20 12   13.7   155.2   1004         25          
2011-12-20 18   14.3   155.9   1000         25          
2011-12-21 00   15.3   156.6   1000         30          
2011-12-21 06   16.3   157.0    998         30          
2011-12-21 12   17.0   157.0    998         30          
2011-12-21 15   17.5   157.2    996         30          
2011-12-21 18   17.9   156.7    994    1    30          
2011-12-21 21   18.1   156.2    994    1    30          
2011-12-22 00   18.5   156.0    996         30          
2011-12-22 01   18.9   155.8    998         30          
2011-12-22 06   19.1   155.7    998         30          
2011-12-22 12   19.5   154.5   1000         30          
2011-12-22 16   19.4   154.2                            
2011-12-22 20   20.4   155.0    998         30          
2011-12-23 00   21.1   155.3                            
2011-12-23 02   21.5   155.5    998                     
2011-12-23 05   22.0   155.8                            
2011-12-23 06   22.0   156.0                            
2011-12-23 12   22.0   156.0                            
2011-12-23 18   21.9   156.1                            
2011-12-24 00   21.8   156.4                            
2011-12-24 02   21.9   157.2                            
2011-12-24 05   22.2   157.5                            
2011-12-24 09   24.0   157.9                            
2011-12-24 11   23.7   157.4                            
2011-12-24 12   23.8   157.5                            
2011-12-24 18   24.2   158.1                            
2011-12-24 23   24.5   158.5                            
2011-12-25 02   24.6   158.9                            
2011-12-25 05   24.6   159.1                            
2011-12-25 06   24.7   159.2                            
2011-12-25 09   24.9   159.4                            
2011-12-25 12   25.8   159.8                            
2011-12-25 18   25.8   160.6                            
2011-12-26 00   26.3   161.5                            
2011-12-26 06   26.5   162.3                            
Winds are 10-min average.

Tropical cyclone tracks developed by Michael Bath using data from the Bureau of Meteorology and Google Maps.


[Australian Severe Weather index] [Copyright Notice] [Email Contacts] [Search This Site] [Privacy Policy]
Document: tropical_cyclone_201112_02.htm Updated: 29 June 2017